KCAE/CAE METAR and TAF weather

Enter ICAO airport designator
Station Type Date Time Source
KCAE METAR 2023/01/30 10:23 UTC NOAA

KCAE 301023Z 32004KT 5SM -RA BR BKN004 BKN010 OVC049 09/09 A3019 RMK AO2 RAB10 P0001 T00940094 $


Station Type Date Time Source
KCAE Decoded METAR 2023/01/30 10:23 UTC NOAA

COLUMBIA METROPOLITAN AIRPORT , SC, United States (KCAE) 33-57N 081-07W 73M
Jan 30, 2023 - 05:23 AM EST / 2023.01.30 1023 UTC
Wind: from the NW (320 degrees) at 5 MPH (4 KT):0
Visibility: 5 mile(s):0
Sky conditions: overcast
Weather: light rain; mist
Precipitation last hour: 0.01 inches
Temperature: 48.9 F (9.4 C)
Dew Point: 48.9 F (9.4 C)
Relative Humidity: 100%
Pressure (altimeter): 30.19 in. Hg (1022 hPa)
ob: KCAE 301023Z 32004KT 5SM -RA BR BKN004 BKN010 OVC049 09/09 A3019 RMK AO2 RAB10 P0001 T00940094
cycle: 10

Station Type Date Time Source
KCAE TAF 2023/01/30 09:12 UTC NOAA

TAF
AMD KCAE 300911Z 3009/3106 VRB03KT 4SM -RA BR OVC004
TEMPO 3009/3012 1SM RA BR BKN004 BKN018 OVC045
FM301700 VRB03KT P6SM SCT004 OVC007
FM310000 VRB03KT P6SM BKN015 BKN035

Example: see airport list